sensor_id;sensor_type;location;lat;lon;timestamp;P1;P2;P0
46885;PMS5003;32622;48.202;11.326;2024-03-06T00:00:50;24;24;
46885;PMS5003;32622;48.202;11.326;2024-03-06T00:02:52;24;24;
46885;PMS5003;32622;48.202;11.326;2024-03-06T00:04:54;24;24;
46885;PMS5003;32622;48.202;11.326;2024-03-06T00:06:56;24;24;
46885;PMS5003;32622;48.202;11.326;2024-03-06T00:08:58;24;24;
46885;PMS5003;32622;48.202;11.326;2024-03-06T00:11:01;24;24;
46885;PMS5003;32622;48.202;11.326;2024-03-06T00:13:03;22;22;
46885;PMS5003;32622;48.202;11.326;2024-03-06T00:15:06;22;22;
46885;PMS5003;32622;48.202;11.326;2024-03-06T00:17:08;22;22;
46885;PMS5003;32622;48.202;11.326;2024-03-06T00:19:10;23;23;
46885;PMS5003;32622;48.202;11.326;2024-03-06T00:21:12;23;23;
46885;PMS5003;32622;48.202;11.326;2024-03-06T00:23:14;23;23;
46885;PMS5003;32622;48.202;11.326;2024-03-06T00:25:17;24;24;
46885;PMS5003;32622;48.202;11.326;2024-03-06T00:27:19;24;24;
46885;PMS5003;32622;48.202;11.326;2024-03-06T00:29:21;24;24;
46885;PMS5003;32622;48.202;11.326;2024-03-06T00:31:23;25;25;
46885;PMS5003;32622;48.202;11.326;2024-03-06T00:33:25;25;25;
46885;PMS5003;32622;48.202;11.326;2024-03-06T00:35:27;25;25;
46885;PMS5003;32622;48.202;11.326;2024-03-06T00:37:29;25;25;
46885;PMS5003;32622;48.202;11.326;2024-03-06T00:39:31;25;25;
46885;PMS5003;32622;48.202;11.326;2024-03-06T00:41:34;25;25;
46885;PMS5003;32622;48.202;11.326;2024-03-06T00:43:36;25;25;
46885;PMS5003;32622;48.202;11.326;2024-03-06T00:45:38;25;25;
46885;PMS5003;32622;48.202;11.326;2024-03-06T00:47:40;25;25;
46885;PMS5003;32622;48.202;11.326;2024-03-06T00:49:42;24;24;
46885;PMS5003;32622;48.202;11.326;2024-03-06T00:51:44;24;24;
46885;PMS5003;32622;48.202;11.326;2024-03-06T00:53:46;24;24;
46885;PMS5003;32622;48.202;11.326;2024-03-06T00:55:49;24;24;
46885;PMS5003;32622;48.202;11.326;2024-03-06T00:57:51;24;24;
46885;PMS5003;32622;48.202;11.326;2024-03-06T00:59:53;24;24;
46885;PMS5003;32622;48.202;11.326;2024-03-06T01:01:55;24;24;
46885;PMS5003;32622;48.202;11.326;2024-03-06T01:03:57;24;24;
46885;PMS5003;32622;48.202;11.326;2024-03-06T01:05:59;24;24;
46885;PMS5003;32622;48.202;11.326;2024-03-06T01:08:01;23;23;
46885;PMS5003;32622;48.202;11.326;2024-03-06T01:10:04;23;23;
46885;PMS5003;32622;48.202;11.326;2024-03-06T01:12:07;23;23;
46885;PMS5003;32622;48.202;11.326;2024-03-06T01:14:09;23;23;
46885;PMS5003;32622;48.202;11.326;2024-03-06T01:16:11;23;23;
46885;PMS5003;32622;48.202;11.326;2024-03-06T01:18:13;23;23;
46885;PMS5003;32622;48.202;11.326;2024-03-06T01:20:15;22;22;
46885;PMS5003;32622;48.202;11.326;2024-03-06T01:22:18;22;22;
46885;PMS5003;32622;48.202;11.326;2024-03-06T01:24:20;22;22;
46885;PMS5003;32622;48.202;11.326;2024-03-06T01:26:22;23;21;
46885;PMS5003;32622;48.202;11.326;2024-03-06T01:28:24;23;21;
46885;PMS5003;32622;48.202;11.326;2024-03-06T01:30:27;23;21;
46885;PMS5003;32622;48.202;11.326;2024-03-06T01:32:29;23;20;
46885;PMS5003;32622;48.202;11.326;2024-03-06T01:34:31;23;20;
46885;PMS5003;32622;48.202;11.326;2024-03-06T01:36:33;23;20;
46885;PMS5003;32622;48.202;11.326;2024-03-06T01:38:35;22;19;
46885;PMS5003;32622;48.202;11.326;2024-03-06T01:40:42;22;19;
46885;PMS5003;32622;48.202;11.326;2024-03-06T01:42:46;22;19;
46885;PMS5003;32622;48.202;11.326;2024-03-06T01:44:48;24;21;
46885;PMS5003;32622;48.202;11.326;2024-03-06T01:46:50;23;21;
46885;PMS5003;32622;48.202;11.326;2024-03-06T01:48:52;25;22;
46885;PMS5003;32622;48.202;11.326;2024-03-06T01:50:55;24;22;
46885;PMS5003;32622;48.202;11.326;2024-03-06T01:52:59;24;22;
46885;PMS5003;32622;48.202;11.326;2024-03-06T01:55:01;26;22;
46885;PMS5003;32622;48.202;11.326;2024-03-06T01:57:03;26;23;
46885;PMS5003;32622;48.202;11.326;2024-03-06T01:59:07;25;23;
46885;PMS5003;32622;48.202;11.326;2024-03-06T02:01:10;24;23;
46885;PMS5003;32622;48.202;11.326;2024-03-06T02:03:12;24;23;
46885;PMS5003;32622;48.202;11.326;2024-03-06T02:05:14;23;22;
46885;PMS5003;32622;48.202;11.326;2024-03-06T02:07:17;23;22;
46885;PMS5003;32622;48.202;11.326;2024-03-06T02:09:20;21;20;
46885;PMS5003;32622;48.202;11.326;2024-03-06T02:11:22;21;20;
46885;PMS5003;32622;48.202;11.326;2024-03-06T02:13:24;21;20;
46885;PMS5003;32622;48.202;11.326;2024-03-06T02:15:27;21;20;
46885;PMS5003;32622;48.202;11.326;2024-03-06T02:17:29;21;20;
46885;PMS5003;32622;48.202;11.326;2024-03-06T02:19:39;21;20;
46885;PMS5003;32622;48.202;11.326;2024-03-06T02:21:42;21;20;
46885;PMS5003;32622;48.202;11.326;2024-03-06T02:23:44;21;20;
46885;PMS5003;32622;48.202;11.326;2024-03-06T02:25:46;21;20;
46885;PMS5003;32622;48.202;11.326;2024-03-06T02:27:48;20;20;
46885;PMS5003;32622;48.202;11.326;2024-03-06T02:29:50;20;20;
46885;PMS5003;32622;48.202;11.326;2024-03-06T02:31:52;20;20;
46885;PMS5003;32622;48.202;11.326;2024-03-06T02:33:55;20;20;
46885;PMS5003;32622;48.202;11.326;2024-03-06T02:35:57;20;20;
46885;PMS5003;32622;48.202;11.326;2024-03-06T02:37:59;20;20;
46885;PMS5003;32622;48.202;11.326;2024-03-06T02:40:02;19;19;
46885;PMS5003;32622;48.202;11.326;2024-03-06T02:42:04;19;19;
46885;PMS5003;32622;48.202;11.326;2024-03-06T02:44:07;19;19;
46885;PMS5003;32622;48.202;11.326;2024-03-06T02:46:09;21;21;
46885;PMS5003;32622;48.202;11.326;2024-03-06T02:48:11;21;21;
46885;PMS5003;32622;48.202;11.326;2024-03-06T02:50:13;21;21;
46885;PMS5003;32622;48.202;11.326;2024-03-06T02:52:15;20;20;
46885;PMS5003;32622;48.202;11.326;2024-03-06T02:54:17;21;21;
46885;PMS5003;32622;48.202;11.326;2024-03-06T02:56:19;22;22;
46885;PMS5003;32622;48.202;11.326;2024-03-06T02:58:22;23;23;
46885;PMS5003;32622;48.202;11.326;2024-03-06T03:00:24;23;23;
46885;PMS5003;32622;48.202;11.326;2024-03-06T03:02:26;24;24;
46885;PMS5003;32622;48.202;11.326;2024-03-06T03:04:28;25;24;
46885;PMS5003;32622;48.202;11.326;2024-03-06T03:06:30;26;24;
46885;PMS5003;32622;48.202;11.326;2024-03-06T03:08:32;25;23;
46885;PMS5003;32622;48.202;11.326;2024-03-06T03:10:34;24;22;
46885;PMS5003;32622;48.202;11.326;2024-03-06T03:12:38;26;24;
46885;PMS5003;32622;48.202;11.326;2024-03-06T03:14:40;27;24;
46885;PMS5003;32622;48.202;11.326;2024-03-06T03:16:42;26;23;
46885;PMS5003;32622;48.202;11.326;2024-03-06T03:18:45;26;23;
46885;PMS5003;32622;48.202;11.326;2024-03-06T03:20:48;26;23;
46885;PMS5003;32622;48.202;11.326;2024-03-06T03:22:50;26;23;
46885;PMS5003;32622;48.202;11.326;2024-03-06T03:24:52;26;23;
46885;PMS5003;32622;48.202;11.326;2024-03-06T03:26:54;26;23;
46885;PMS5003;32622;48.202;11.326;2024-03-06T03:28:56;25;23;
46885;PMS5003;32622;48.202;11.326;2024-03-06T03:30:58;25;23;
46885;PMS5003;32622;48.202;11.326;2024-03-06T03:33:01;25;23;
46885;PMS5003;32622;48.202;11.326;2024-03-06T03:35:03;27;24;
46885;PMS5003;32622;48.202;11.326;2024-03-06T03:37:05;25;24;
46885;PMS5003;32622;48.202;11.326;2024-03-06T03:39:08;24;23;
46885;PMS5003;32622;48.202;11.326;2024-03-06T03:41:11;24;23;
46885;PMS5003;32622;48.202;11.326;2024-03-06T03:43:14;25;24;
46885;PMS5003;32622;48.202;11.326;2024-03-06T03:45:16;23;22;
46885;PMS5003;32622;48.202;11.326;2024-03-06T03:47:18;23;23;
46885;PMS5003;32622;48.202;11.326;2024-03-06T03:49:20;24;24;
46885;PMS5003;32622;48.202;11.326;2024-03-06T03:51:22;24;24;
46885;PMS5003;32622;48.202;11.326;2024-03-06T03:53:24;23;23;
46885;PMS5003;32622;48.202;11.326;2024-03-06T03:55:27;22;22;
46885;PMS5003;32622;48.202;11.326;2024-03-06T03:57:29;22;22;
46885;PMS5003;32622;48.202;11.326;2024-03-06T03:59:31;24;24;
46885;PMS5003;32622;48.202;11.326;2024-03-06T04:01:33;25;25;
46885;PMS5003;32622;48.202;11.326;2024-03-06T04:03:35;26;26;
46885;PMS5003;32622;48.202;11.326;2024-03-06T04:05:37;26;26;
46885;PMS5003;32622;48.202;11.326;2024-03-06T04:07:40;26;26;
46885;PMS5003;32622;48.202;11.326;2024-03-06T04:09:42;26;26;
46885;PMS5003;32622;48.202;11.326;2024-03-06T04:11:44;25;25;
46885;PMS5003;32622;48.202;11.326;2024-03-06T04:13:46;24;24;
46885;PMS5003;32622;48.202;11.326;2024-03-06T04:15:48;24;24;
46885;PMS5003;32622;48.202;11.326;2024-03-06T04:17:50;24;24;
46885;PMS5003;32622;48.202;11.326;2024-03-06T04:19:52;24;24;
46885;PMS5003;32622;48.202;11.326;2024-03-06T04:21:54;24;24;
46885;PMS5003;32622;48.202;11.326;2024-03-06T04:23:57;25;24;
46885;PMS5003;32622;48.202;11.326;2024-03-06T04:25:59;25;24;
46885;PMS5003;32622;48.202;11.326;2024-03-06T04:28:01;26;25;
46885;PMS5003;32622;48.202;11.326;2024-03-06T04:30:03;26;25;
46885;PMS5003;32622;48.202;11.326;2024-03-06T04:32:06;26;25;
46885;PMS5003;32622;48.202;11.326;2024-03-06T04:34:09;26;25;
46885;PMS5003;32622;48.202;11.326;2024-03-06T04:36:11;24;23;
46885;PMS5003;32622;48.202;11.326;2024-03-06T04:38:13;24;23;
46885;PMS5003;32622;48.202;11.326;2024-03-06T04:40:15;24;23;
46885;PMS5003;32622;48.202;11.326;2024-03-06T04:42:17;25;24;
46885;PMS5003;32622;48.202;11.326;2024-03-06T04:44:19;25;24;
46885;PMS5003;32622;48.202;11.326;2024-03-06T04:46:21;25;24;
46885;PMS5003;32622;48.202;11.326;2024-03-06T04:48:23;24;22;
46885;PMS5003;32622;48.202;11.326;2024-03-06T04:50:26;24;22;
46885;PMS5003;32622;48.202;11.326;2024-03-06T04:52:28;24;22;
46885;PMS5003;32622;48.202;11.326;2024-03-06T04:54:30;23;22;
46885;PMS5003;32622;48.202;11.326;2024-03-06T04:56:32;23;22;
46885;PMS5003;32622;48.202;11.326;2024-03-06T04:58:34;23;22;
46885;PMS5003;32622;48.202;11.326;2024-03-06T05:00:37;22;21;
46885;PMS5003;32622;48.202;11.326;2024-03-06T05:02:39;22;21;
46885;PMS5003;32622;48.202;11.326;2024-03-06T05:04:41;23;22;
46885;PMS5003;32622;48.202;11.326;2024-03-06T05:06:43;23;22;
46885;PMS5003;32622;48.202;11.326;2024-03-06T05:08:45;23;22;
46885;PMS5003;32622;48.202;11.326;2024-03-06T05:10:47;22;21;
46885;PMS5003;32622;48.202;11.326;2024-03-06T05:12:49;20;19;
46885;PMS5003;32622;48.202;11.326;2024-03-06T05:14:52;20;19;
46885;PMS5003;32622;48.202;11.326;2024-03-06T05:16:54;20;19;
46885;PMS5003;32622;48.202;11.326;2024-03-06T05:18:56;19;18;
46885;PMS5003;32622;48.202;11.326;2024-03-06T05:20:58;19;18;
46885;PMS5003;32622;48.202;11.326;2024-03-06T05:23:01;19;18;
46885;PMS5003;32622;48.202;11.326;2024-03-06T05:25:03;20;20;
46885;PMS5003;32622;48.202;11.326;2024-03-06T05:27:06;20;20;
46885;PMS5003;32622;48.202;11.326;2024-03-06T05:29:08;20;20;
46885;PMS5003;32622;48.202;11.326;2024-03-06T05:31:18;20;20;
46885;PMS5003;32622;48.202;11.326;2024-03-06T05:33:21;20;20;
46885;PMS5003;32622;48.202;11.326;2024-03-06T05:35:23;20;20;
46885;PMS5003;32622;48.202;11.326;2024-03-06T05:37:25;21;21;
46885;PMS5003;32622;48.202;11.326;2024-03-06T05:39:27;21;21;
46885;PMS5003;32622;48.202;11.326;2024-03-06T05:41:30;21;21;
46885;PMS5003;32622;48.202;11.326;2024-03-06T05:43:32;19;19;
46885;PMS5003;32622;48.202;11.326;2024-03-06T05:45:34;19;19;
46885;PMS5003;32622;48.202;11.326;2024-03-06T05:47:36;19;19;
46885;PMS5003;32622;48.202;11.326;2024-03-06T05:49:39;19;19;
46885;PMS5003;32622;48.202;11.326;2024-03-06T05:51:41;19;19;
46885;PMS5003;32622;48.202;11.326;2024-03-06T05:53:43;19;19;
46885;PMS5003;32622;48.202;11.326;2024-03-06T05:55:45;20;20;
46885;PMS5003;32622;48.202;11.326;2024-03-06T05:57:47;20;20;
46885;PMS5003;32622;48.202;11.326;2024-03-06T05:59:50;20;20;
46885;PMS5003;32622;48.202;11.326;2024-03-06T06:01:52;19;19;
46885;PMS5003;32622;48.202;11.326;2024-03-06T06:03:54;19;19;
46885;PMS5003;32622;48.202;11.326;2024-03-06T06:05:56;19;19;
46885;PMS5003;32622;48.202;11.326;2024-03-06T06:07:59;20;20;
46885;PMS5003;32622;48.202;11.326;2024-03-06T06:10:01;20;20;
46885;PMS5003;32622;48.202;11.326;2024-03-06T06:12:03;20;20;
46885;PMS5003;32622;48.202;11.326;2024-03-06T06:14:06;20;20;
46885;PMS5003;32622;48.202;11.326;2024-03-06T06:16:08;20;20;
46885;PMS5003;32622;48.202;11.326;2024-03-06T06:18:10;20;20;
46885;PMS5003;32622;48.202;11.326;2024-03-06T06:20:12;20;20;
46885;PMS5003;32622;48.202;11.326;2024-03-06T06:22:14;19;19;
46885;PMS5003;32622;48.202;11.326;2024-03-06T06:24:16;19;19;
46885;PMS5003;32622;48.202;11.326;2024-03-06T06:26:18;20;19;
46885;PMS5003;32622;48.202;11.326;2024-03-06T06:28:21;21;20;
46885;PMS5003;32622;48.202;11.326;2024-03-06T06:30:23;21;20;
46885;PMS5003;32622;48.202;11.326;2024-03-06T06:32:25;22;20;
46885;PMS5003;32622;48.202;11.326;2024-03-06T06:34:27;22;20;
46885;PMS5003;32622;48.202;11.326;2024-03-06T06:36:29;22;20;
46885;PMS5003;32622;48.202;11.326;2024-03-06T06:38:31;21;19;
46885;PMS5003;32622;48.202;11.326;2024-03-06T06:40:33;21;19;
46885;PMS5003;32622;48.202;11.326;2024-03-06T06:42:36;21;19;
46885;PMS5003;32622;48.202;11.326;2024-03-06T06:44:38;22;20;
46885;PMS5003;32622;48.202;11.326;2024-03-06T06:46:40;22;20;
46885;PMS5003;32622;48.202;11.326;2024-03-06T06:48:42;22;20;
46885;PMS5003;32622;48.202;11.326;2024-03-06T06:50:44;24;21;
46885;PMS5003;32622;48.202;11.326;2024-03-06T06:52:46;24;21;
46885;PMS5003;32622;48.202;11.326;2024-03-06T06:54:49;24;21;
46885;PMS5003;32622;48.202;11.326;2024-03-06T06:56:51;24;21;
46885;PMS5003;32622;48.202;11.326;2024-03-06T06:58:53;24;21;
46885;PMS5003;32622;48.202;11.326;2024-03-06T07:00:55;24;21;
46885;PMS5003;32622;48.202;11.326;2024-03-06T07:02:57;26;22;
46885;PMS5003;32622;48.202;11.326;2024-03-06T07:04:59;26;22;
46885;PMS5003;32622;48.202;11.326;2024-03-06T07:07:01;26;22;
46885;PMS5003;32622;48.202;11.326;2024-03-06T07:09:03;26;21;
46885;PMS5003;32622;48.202;11.326;2024-03-06T07:11:05;26;21;
46885;PMS5003;32622;48.202;11.326;2024-03-06T07:13:07;26;21;
46885;PMS5003;32622;48.202;11.326;2024-03-06T07:15:10;26;21;
46885;PMS5003;32622;48.202;11.326;2024-03-06T07:17:12;26;21;
46885;PMS5003;32622;48.202;11.326;2024-03-06T07:19:14;26;21;
46885;PMS5003;32622;48.202;11.326;2024-03-06T07:21:16;26;21;
46885;PMS5003;32622;48.202;11.326;2024-03-06T07:23:18;26;21;
46885;PMS5003;32622;48.202;11.326;2024-03-06T07:25:20;26;21;
46885;PMS5003;32622;48.202;11.326;2024-03-06T07:27:23;25;20;
46885;PMS5003;32622;48.202;11.326;2024-03-06T07:29:25;25;20;
46885;PMS5003;32622;48.202;11.326;2024-03-06T07:31:27;25;20;
46885;PMS5003;32622;48.202;11.326;2024-03-06T07:33:30;26;21;
46885;PMS5003;32622;48.202;11.326;2024-03-06T07:35:32;26;21;
46885;PMS5003;32622;48.202;11.326;2024-03-06T07:37:34;26;21;
46885;PMS5003;32622;48.202;11.326;2024-03-06T07:39:37;25;20;
46885;PMS5003;32622;48.202;11.326;2024-03-06T07:41:39;25;20;
46885;PMS5003;32622;48.202;11.326;2024-03-06T07:43:41;25;20;
46885;PMS5003;32622;48.202;11.326;2024-03-06T07:45:43;25;20;
46885;PMS5003;32622;48.202;11.326;2024-03-06T07:47:45;25;20;
46885;PMS5003;32622;48.202;11.326;2024-03-06T07:49:47;25;20;
46885;PMS5003;32622;48.202;11.326;2024-03-06T07:51:50;22;19;
46885;PMS5003;32622;48.202;11.326;2024-03-06T07:53:52;22;19;
46885;PMS5003;32622;48.202;11.326;2024-03-06T07:55:54;22;19;
46885;PMS5003;32622;48.202;11.326;2024-03-06T07:57:56;22;19;
46885;PMS5003;32622;48.202;11.326;2024-03-06T07:59:58;23;20;
46885;PMS5003;32622;48.202;11.326;2024-03-06T08:02:00;23;20;
46885;PMS5003;32622;48.202;11.326;2024-03-06T08:04:02;23;20;
46885;PMS5003;32622;48.202;11.326;2024-03-06T08:06:05;23;20;
46885;PMS5003;32622;48.202;11.326;2024-03-06T08:08:07;23;20;
46885;PMS5003;32622;48.202;11.326;2024-03-06T08:10:09;22;21;
46885;PMS5003;32622;48.202;11.326;2024-03-06T08:12:12;22;21;
46885;PMS5003;32622;48.202;11.326;2024-03-06T08:14:14;21;20;
46885;PMS5003;32622;48.202;11.326;2024-03-06T08:16:16;21;20;
46885;PMS5003;32622;48.202;11.326;2024-03-06T08:18:18;21;20;
46885;PMS5003;32622;48.202;11.326;2024-03-06T08:20:20;21;20;
46885;PMS5003;32622;48.202;11.326;2024-03-06T08:22:23;21;20;
46885;PMS5003;32622;48.202;11.326;2024-03-06T08:24:25;21;20;
46885;PMS5003;32622;48.202;11.326;2024-03-06T08:26:27;21;20;
46885;PMS5003;32622;48.202;11.326;2024-03-06T08:28:29;21;21;
46885;PMS5003;32622;48.202;11.326;2024-03-06T08:30:32;21;21;
46885;PMS5003;32622;48.202;11.326;2024-03-06T08:32:34;21;21;
46885;PMS5003;32622;48.202;11.326;2024-03-06T08:34:37;20;20;
46885;PMS5003;32622;48.202;11.326;2024-03-06T08:36:39;20;20;
46885;PMS5003;32622;48.202;11.326;2024-03-06T08:38:41;20;20;
46885;PMS5003;32622;48.202;11.326;2024-03-06T08:40:43;21;21;
46885;PMS5003;32622;48.202;11.326;2024-03-06T08:42:46;22;22;
46885;PMS5003;32622;48.202;11.326;2024-03-06T08:44:48;22;22;
46885;PMS5003;32622;48.202;11.326;2024-03-06T08:46:50;21;21;
46885;PMS5003;32622;48.202;11.326;2024-03-06T08:48:52;20;19;
46885;PMS5003;32622;48.202;11.326;2024-03-06T08:50:54;20;19;
46885;PMS5003;32622;48.202;11.326;2024-03-06T08:52:56;19;18;
46885;PMS5003;32622;48.202;11.326;2024-03-06T08:54:59;19;18;
46885;PMS5003;32622;48.202;11.326;2024-03-06T08:57:01;20;19;
46885;PMS5003;32622;48.202;11.326;2024-03-06T08:59:03;20;19;
46885;PMS5003;32622;48.202;11.326;2024-03-06T09:01:05;20;19;
46885;PMS5003;32622;48.202;11.326;2024-03-06T09:03:07;20;19;
46885;PMS5003;32622;48.202;11.326;2024-03-06T09:05:10;20;19;
46885;PMS5003;32622;48.202;11.326;2024-03-06T09:07:12;20;19;
46885;PMS5003;32622;48.202;11.326;2024-03-06T09:09:15;22;22;
46885;PMS5003;32622;48.202;11.326;2024-03-06T09:11:17;22;22;
46885;PMS5003;32622;48.202;11.326;2024-03-06T09:13:19;22;22;
46885;PMS5003;32622;48.202;11.326;2024-03-06T09:15:21;22;22;
46885;PMS5003;32622;48.202;11.326;2024-03-06T09:17:24;23;23;
46885;PMS5003;32622;48.202;11.326;2024-03-06T09:19:26;23;23;
46885;PMS5003;32622;48.202;11.326;2024-03-06T09:21:28;23;23;
46885;PMS5003;32622;48.202;11.326;2024-03-06T09:23:31;22;22;
46885;PMS5003;32622;48.202;11.326;2024-03-06T09:25:33;22;22;
46885;PMS5003;32622;48.202;11.326;2024-03-06T09:27:35;22;22;
46885;PMS5003;32622;48.202;11.326;2024-03-06T09:29:37;21;21;
46885;PMS5003;32622;48.202;11.326;2024-03-06T09:31:39;21;21;
46885;PMS5003;32622;48.202;11.326;2024-03-06T09:33:42;21;21;
46885;PMS5003;32622;48.202;11.326;2024-03-06T09:35:44;22;22;
46885;PMS5003;32622;48.202;11.326;2024-03-06T09:37:46;22;22;
46885;PMS5003;32622;48.202;11.326;2024-03-06T09:39:48;22;22;
46885;PMS5003;32622;48.202;11.326;2024-03-06T09:41:51;23;22;
46885;PMS5003;32622;48.202;11.326;2024-03-06T09:43:54;23;22;
46885;PMS5003;32622;48.202;11.326;2024-03-06T09:45:57;22;22;
46885;PMS5003;32622;48.202;11.326;2024-03-06T09:47:59;22;21;
46885;PMS5003;32622;48.202;11.326;2024-03-06T09:50:01;21;20;
46885;PMS5003;32622;48.202;11.326;2024-03-06T09:52:04;21;20;
46885;PMS5003;32622;48.202;11.326;2024-03-06T09:54:06;22;21;
46885;PMS5003;32622;48.202;11.326;2024-03-06T09:56:10;22;21;
46885;PMS5003;32622;48.202;11.326;2024-03-06T09:58:12;23;22;
46885;PMS5003;32622;48.202;11.326;2024-03-06T10:00:15;22;21;
46885;PMS5003;32622;48.202;11.326;2024-03-06T10:02:19;22;21;
46885;PMS5003;32622;48.202;11.326;2024-03-06T10:04:35;22;21;
46885;PMS5003;32622;48.202;11.326;2024-03-06T10:06:38;23;21;
46885;PMS5003;32622;48.202;11.326;2024-03-06T10:08:41;23;21;
46885;PMS5003;32622;48.202;11.326;2024-03-06T10:10:44;23;21;
46885;PMS5003;32622;48.202;11.326;2024-03-06T10:12:48;22;21;
46885;PMS5003;32622;48.202;11.326;2024-03-06T10:14:50;22;21;
46885;PMS5003;32622;48.202;11.326;2024-03-06T10:16:53;22;21;
46885;PMS5003;32622;48.202;11.326;2024-03-06T10:18:56;22;20;
46885;PMS5003;32622;48.202;11.326;2024-03-06T10:20:58;22;20;
46885;PMS5003;32622;48.202;11.326;2024-03-06T10:23:00;22;20;
46885;PMS5003;32622;48.202;11.326;2024-03-06T10:25:03;22;21;
46885;PMS5003;32622;48.202;11.326;2024-03-06T10:27:07;22;21;
46885;PMS5003;32622;48.202;11.326;2024-03-06T10:29:09;22;21;
46885;PMS5003;32622;48.202;11.326;2024-03-06T10:31:11;22;21;
46885;PMS5003;32622;48.202;11.326;2024-03-06T10:33:13;22;21;
46885;PMS5003;32622;48.202;11.326;2024-03-06T10:35:17;22;21;
46885;PMS5003;32622;48.202;11.326;2024-03-06T10:37:20;22;21;
46885;PMS5003;32622;48.202;11.326;2024-03-06T10:39:23;22;21;
46885;PMS5003;32622;48.202;11.326;2024-03-06T10:41:26;22;21;
46885;PMS5003;32622;48.202;11.326;2024-03-06T10:43:33;22;21;
46885;PMS5003;32622;48.202;11.326;2024-03-06T10:45:40;22;21;
46885;PMS5003;32622;48.202;11.326;2024-03-06T10:47:48;22;21;
46885;PMS5003;32622;48.202;11.326;2024-03-06T10:49:51;22;21;
46885;PMS5003;32622;48.202;11.326;2024-03-06T10:51:57;22;21;
46885;PMS5003;32622;48.202;11.326;2024-03-06T10:54:01;22;21;
46885;PMS5003;32622;48.202;11.326;2024-03-06T10:56:04;21;20;
46885;PMS5003;32622;48.202;11.326;2024-03-06T10:58:09;21;20;
46885;PMS5003;32622;48.202;11.326;2024-03-06T11:00:12;21;20;
46885;PMS5003;32622;48.202;11.326;2024-03-06T11:02:15;21;20;
46885;PMS5003;32622;48.202;11.326;2024-03-06T11:04:18;21;20;
46885;PMS5003;32622;48.202;11.326;2024-03-06T11:06:21;21;20;
46885;PMS5003;32622;48.202;11.326;2024-03-06T11:08:23;19;19;
46885;PMS5003;32622;48.202;11.326;2024-03-06T11:10:29;19;19;
46885;PMS5003;32622;48.202;11.326;2024-03-06T11:12:33;19;19;
46885;PMS5003;32622;48.202;11.326;2024-03-06T11:14:37;19;19;
46885;PMS5003;32622;48.202;11.326;2024-03-06T11:16:55;19;19;
46885;PMS5003;32622;48.202;11.326;2024-03-06T11:19:07;19;19;
46885;PMS5003;32622;48.202;11.326;2024-03-06T11:24:11;18;18;
46885;PMS5003;32622;48.202;11.326;2024-03-06T11:26:16;18;18;
46885;PMS5003;32622;48.202;11.326;2024-03-06T11:28:19;18;18;
46885;PMS5003;32622;48.202;11.326;2024-03-06T11:30:22;18;18;
46885;PMS5003;32622;48.202;11.326;2024-03-06T11:32:24;18;18;
46885;PMS5003;32622;48.202;11.326;2024-03-06T11:34:26;18;18;
46885;PMS5003;32622;48.202;11.326;2024-03-06T11:36:28;18;18;
46885;PMS5003;32622;48.202;11.326;2024-03-06T11:38:31;18;18;
46885;PMS5003;32622;48.202;11.326;2024-03-06T11:40:42;19;18;
46885;PMS5003;32622;48.202;11.326;2024-03-06T11:42:44;19;18;
46885;PMS5003;32622;48.202;11.326;2024-03-06T11:44:54;19;18;
46885;PMS5003;32622;48.202;11.326;2024-03-06T11:46:57;19;18;
46885;PMS5003;32622;48.202;11.326;2024-03-06T11:49:01;19;18;
46885;PMS5003;32622;48.202;11.326;2024-03-06T11:51:03;19;18;
46885;PMS5003;32622;48.202;11.326;2024-03-06T11:53:05;19;18;
46885;PMS5003;32622;48.202;11.326;2024-03-06T11:55:08;19;18;
46885;PMS5003;32622;48.202;11.326;2024-03-06T11:57:11;19;18;
46885;PMS5003;32622;48.202;11.326;2024-03-06T11:59:13;18;17;
46885;PMS5003;32622;48.202;11.326;2024-03-06T12:01:15;18;17;
46885;PMS5003;32622;48.202;11.326;2024-03-06T12:03:17;18;17;
46885;PMS5003;32622;48.202;11.326;2024-03-06T12:05:19;19;18;
46885;PMS5003;32622;48.202;11.326;2024-03-06T12:07:23;19;18;
46885;PMS5003;32622;48.202;11.326;2024-03-06T12:09:25;19;18;
46885;PMS5003;32622;48.202;11.326;2024-03-06T12:11:28;21;20;
46885;PMS5003;32622;48.202;11.326;2024-03-06T12:13:30;21;20;
46885;PMS5003;32622;48.202;11.326;2024-03-06T12:15:32;21;20;
46885;PMS5003;32622;48.202;11.326;2024-03-06T12:17:41;21;19;
46885;PMS5003;32622;48.202;11.326;2024-03-06T12:19:44;21;19;
46885;PMS5003;32622;48.202;11.326;2024-03-06T12:21:47;21;19;
46885;PMS5003;32622;48.202;11.326;2024-03-06T12:23:49;20;19;
46885;PMS5003;32622;48.202;11.326;2024-03-06T12:26:01;20;19;
46885;PMS5003;32622;48.202;11.326;2024-03-06T12:28:06;20;19;
46885;PMS5003;32622;48.202;11.326;2024-03-06T12:30:09;20;19;
46885;PMS5003;32622;48.202;11.326;2024-03-06T12:32:15;20;19;
46885;PMS5003;32622;48.202;11.326;2024-03-06T12:34:18;20;19;
46885;PMS5003;32622;48.202;11.326;2024-03-06T12:36:24;20;19;
46885;PMS5003;32622;48.202;11.326;2024-03-06T12:38:28;20;19;
46885;PMS5003;32622;48.202;11.326;2024-03-06T12:40:30;20;19;
46885;PMS5003;32622;48.202;11.326;2024-03-06T12:42:33;18;18;
46885;PMS5003;32622;48.202;11.326;2024-03-06T12:44:35;18;18;
46885;PMS5003;32622;48.202;11.326;2024-03-06T12:46:37;18;18;
46885;PMS5003;32622;48.202;11.326;2024-03-06T12:48:39;17;17;
46885;PMS5003;32622;48.202;11.326;2024-03-06T12:50:41;17;17;
46885;PMS5003;32622;48.202;11.326;2024-03-06T12:52:43;17;17;
46885;PMS5003;32622;48.202;11.326;2024-03-06T12:54:45;17;16;
46885;PMS5003;32622;48.202;11.326;2024-03-06T12:56:47;17;16;
46885;PMS5003;32622;48.202;11.326;2024-03-06T12:58:49;17;16;
46885;PMS5003;32622;48.202;11.326;2024-03-06T13:00:52;18;17;
46885;PMS5003;32622;48.202;11.326;2024-03-06T13:02:54;18;17;
46885;PMS5003;32622;48.202;11.326;2024-03-06T13:04:56;18;17;
46885;PMS5003;32622;48.202;11.326;2024-03-06T13:06:58;18;17;
46885;PMS5003;32622;48.202;11.326;2024-03-06T13:09:00;18;17;
46885;PMS5003;32622;48.202;11.326;2024-03-06T13:11:02;18;17;
46885;PMS5003;32622;48.202;11.326;2024-03-06T13:13:05;17;15;
46885;PMS5003;32622;48.202;11.326;2024-03-06T13:15:07;17;15;
46885;PMS5003;32622;48.202;11.326;2024-03-06T13:17:10;17;15;
46885;PMS5003;32622;48.202;11.326;2024-03-06T13:19:12;16;15;
46885;PMS5003;32622;48.202;11.326;2024-03-06T13:21:14;16;15;
46885;PMS5003;32622;48.202;11.326;2024-03-06T13:23:16;16;15;